sensor_id;sensor_type;location;lat;lon;timestamp;temperature;humidity
66053;HTU21D;52833;45.112;39.556;2022-11-20T00:00:53;12.16;82.97
66053;HTU21D;52833;45.112;39.556;2022-11-20T00:03:20;12.10;82.89
66053;HTU21D;52833;45.112;39.556;2022-11-20T00:05:46;12.05;82.99
66053;HTU21D;52833;45.112;39.556;2022-11-20T00:08:13;12.00;82.93
66053;HTU21D;52833;45.112;39.556;2022-11-20T00:10:40;11.94;82.91
66053;HTU21D;52833;45.112;39.556;2022-11-20T00:13:06;11.90;82.98
66053;HTU21D;52833;45.112;39.556;2022-11-20T00:15:33;11.86;82.99
66053;HTU21D;52833;45.112;39.556;2022-11-20T00:18:00;11.81;82.96
66053;HTU21D;52833;45.112;39.556;2022-11-20T00:20:27;11.74;82.94
66053;HTU21D;52833;45.112;39.556;2022-11-20T00:22:53;11.69;82.96
66053;HTU21D;52833;45.112;39.556;2022-11-20T00:25:19;11.63;83.12
66053;HTU21D;52833;45.112;39.556;2022-11-20T00:27:45;11.60;83.03
66053;HTU21D;52833;45.112;39.556;2022-11-20T00:30:12;11.53;83.02
66053;HTU21D;52833;45.112;39.556;2022-11-20T00:32:38;11.47;83.14
66053;HTU21D;52833;45.112;39.556;2022-11-20T00:35:05;11.41;83.32
66053;HTU21D;52833;45.112;39.556;2022-11-20T00:37:32;11.37;83.23
66053;HTU21D;52833;45.112;39.556;2022-11-20T00:39:58;11.33;83.27
66053;HTU21D;52833;45.112;39.556;2022-11-20T00:42:25;11.28;83.46
66053;HTU21D;52833;45.112;39.556;2022-11-20T00:44:52;11.24;83.26
66053;HTU21D;52833;45.112;39.556;2022-11-20T00:47:18;11.18;83.17
66053;HTU21D;52833;45.112;39.556;2022-11-20T00:49:45;11.12;83.31
66053;HTU21D;52833;45.112;39.556;2022-11-20T00:52:11;11.08;83.22
66053;HTU21D;52833;45.112;39.556;2022-11-20T00:54:38;11.01;83.20
66053;HTU21D;52833;45.112;39.556;2022-11-20T00:57:04;10.96;83.24
66053;HTU21D;52833;45.112;39.556;2022-11-20T00:59:31;10.90;83.50
66053;HTU21D;52833;45.112;39.556;2022-11-20T01:01:57;10.87;83.42
66053;HTU21D;52833;45.112;39.556;2022-11-20T01:04:24;10.81;83.30
66053;HTU21D;52833;45.112;39.556;2022-11-20T01:06:50;10.77;83.47
66053;HTU21D;52833;45.112;39.556;2022-11-20T01:09:17;10.73;83.84
66053;HTU21D;52833;45.112;39.556;2022-11-20T01:11:44;10.69;83.61
66053;HTU21D;52833;45.112;39.556;2022-11-20T01:14:17;10.65;83.52
66053;HTU21D;52833;45.112;39.556;2022-11-20T01:16:49;10.59;83.60
66053;HTU21D;52833;45.112;39.556;2022-11-20T01:19:17;10.56;85.61
66053;HTU21D;52833;45.112;39.556;2022-11-20T01:21:47;10.55;84.84
66053;HTU21D;52833;45.112;39.556;2022-11-20T01:24:16;10.53;84.67
66053;HTU21D;52833;45.112;39.556;2022-11-20T01:26:44;10.51;84.34
66053;HTU21D;52833;45.112;39.556;2022-11-20T01:29:17;10.46;84.17
66053;HTU21D;52833;45.112;39.556;2022-11-20T01:31:44;10.43;84.09
66053;HTU21D;52833;45.112;39.556;2022-11-20T01:34:16;10.41;84.12
66053;HTU21D;52833;45.112;39.556;2022-11-20T01:36:44;10.37;84.10
66053;HTU21D;52833;45.112;39.556;2022-11-20T01:39:20;10.33;84.05
66053;HTU21D;52833;45.112;39.556;2022-11-20T01:41:49;10.30;83.97
66053;HTU21D;52833;45.112;39.556;2022-11-20T01:44:59;10.24;83.94
66053;HTU21D;52833;45.112;39.556;2022-11-20T01:47:44;10.19;83.90
66053;HTU21D;52833;45.112;39.556;2022-11-20T01:50:21;10.14;83.84
66053;HTU21D;52833;45.112;39.556;2022-11-20T01:53:02;10.09;83.74
66053;HTU21D;52833;45.112;39.556;2022-11-20T01:55:33;10.00;83.65
66053;HTU21D;52833;45.112;39.556;2022-11-20T01:58:01;9.92;83.65
66053;HTU21D;52833;45.112;39.556;2022-11-20T02:00:29;9.84;83.68
66053;HTU21D;52833;45.112;39.556;2022-11-20T02:03:11;9.78;83.78
66053;HTU21D;52833;45.112;39.556;2022-11-20T02:08:32;9.63;83.87
66053;HTU21D;52833;45.112;39.556;2022-11-20T02:10:59;9.57;83.77
66053;HTU21D;52833;45.112;39.556;2022-11-20T02:13:26;9.48;83.74
66053;HTU21D;52833;45.112;39.556;2022-11-20T02:16:39;9.38;83.75
66053;HTU21D;52833;45.112;39.556;2022-11-20T02:19:32;9.30;83.77
66053;HTU21D;52833;45.112;39.556;2022-11-20T02:24:33;9.15;83.93
66053;HTU21D;52833;45.112;39.556;2022-11-20T02:27:15;9.08;84.10
66053;HTU21D;52833;45.112;39.556;2022-11-20T02:29:56;9.05;84.18
66053;HTU21D;52833;45.112;39.556;2022-11-20T02:32:32;8.98;84.05
66053;HTU21D;52833;45.112;39.556;2022-11-20T02:37:51;8.87;84.21
66053;HTU21D;52833;45.112;39.556;2022-11-20T02:40:19;8.81;84.31
66053;HTU21D;52833;45.112;39.556;2022-11-20T02:42:46;8.78;84.40
66053;HTU21D;52833;45.112;39.556;2022-11-20T02:45:12;8.74;84.44
66053;HTU21D;52833;45.112;39.556;2022-11-20T02:47:39;8.72;84.64
66053;HTU21D;52833;45.112;39.556;2022-11-20T02:50:05;8.72;84.63
66053;HTU21D;52833;45.112;39.556;2022-11-20T02:52:32;8.71;84.61
66053;HTU21D;52833;45.112;39.556;2022-11-20T02:54:59;8.67;84.71
66053;HTU21D;52833;45.112;39.556;2022-11-20T02:57:25;8.66;84.84
66053;HTU21D;52833;45.112;39.556;2022-11-20T02:59:52;8.67;84.88
66053;HTU21D;52833;45.112;39.556;2022-11-20T03:02:18;8.71;84.93
66053;HTU21D;52833;45.112;39.556;2022-11-20T03:04:45;8.72;84.96
66053;HTU21D;52833;45.112;39.556;2022-11-20T03:07:12;8.74;84.95
66053;HTU21D;52833;45.112;39.556;2022-11-20T03:09:38;8.74;85.19
66053;HTU21D;52833;45.112;39.556;2022-11-20T03:12:05;8.79;85.24
66053;HTU21D;52833;45.112;39.556;2022-11-20T03:14:31;8.83;85.35
66053;HTU21D;52833;45.112;39.556;2022-11-20T03:16:58;8.88;85.17
66053;HTU21D;52833;45.112;39.556;2022-11-20T03:19:24;8.91;85.05
66053;HTU21D;52833;45.112;39.556;2022-11-20T03:21:51;8.89;84.97
66053;HTU21D;52833;45.112;39.556;2022-11-20T03:24:17;8.85;84.96
66053;HTU21D;52833;45.112;39.556;2022-11-20T03:26:44;8.81;84.93
66053;HTU21D;52833;45.112;39.556;2022-11-20T03:29:10;8.77;84.91
66053;HTU21D;52833;45.112;39.556;2022-11-20T03:31:39;8.72;84.90
66053;HTU21D;52833;45.112;39.556;2022-11-20T03:34:10;8.66;84.84
66053;HTU21D;52833;45.112;39.556;2022-11-20T03:36:41;8.60;84.78
66053;HTU21D;52833;45.112;39.556;2022-11-20T03:39:08;8.52;84.74
66053;HTU21D;52833;45.112;39.556;2022-11-20T03:41:40;8.47;84.81
66053;HTU21D;52833;45.112;39.556;2022-11-20T03:44:09;8.41;84.83
66053;HTU21D;52833;45.112;39.556;2022-11-20T03:46:36;8.34;84.80
66053;HTU21D;52833;45.112;39.556;2022-11-20T03:49:03;8.28;84.79
66053;HTU21D;52833;45.112;39.556;2022-11-20T03:51:32;8.21;84.80
66053;HTU21D;52833;45.112;39.556;2022-11-20T03:54:02;8.15;84.81
66053;HTU21D;52833;45.112;39.556;2022-11-20T03:56:32;8.09;84.89
66053;HTU21D;52833;45.112;39.556;2022-11-20T03:58:59;8.04;84.98
66053;HTU21D;52833;45.112;39.556;2022-11-20T04:01:28;8.01;85.06
66053;HTU21D;52833;45.112;39.556;2022-11-20T04:03:56;7.96;85.12
66053;HTU21D;52833;45.112;39.556;2022-11-20T04:06:28;7.93;85.19
66053;HTU21D;52833;45.112;39.556;2022-11-20T04:08:57;7.91;85.24
66053;HTU21D;52833;45.112;39.556;2022-11-20T04:11:30;7.87;85.32
66053;HTU21D;52833;45.112;39.556;2022-11-20T04:13:58;7.87;85.42
66053;HTU21D;52833;45.112;39.556;2022-11-20T04:16:26;7.86;85.51
66053;HTU21D;52833;45.112;39.556;2022-11-20T04:18:56;7.85;85.57
66053;HTU21D;52833;45.112;39.556;2022-11-20T04:21:25;7.83;85.58
66053;HTU21D;52833;45.112;39.556;2022-11-20T04:23:53;7.83;85.60
66053;HTU21D;52833;45.112;39.556;2022-11-20T04:26:20;7.83;85.62
66053;HTU21D;52833;45.112;39.556;2022-11-20T04:28:47;7.82;85.64
66053;HTU21D;52833;45.112;39.556;2022-11-20T04:31:16;7.81;85.66
66053;HTU21D;52833;45.112;39.556;2022-11-20T04:33:42;7.81;85.68
66053;HTU21D;52833;45.112;39.556;2022-11-20T04:36:17;7.79;85.70
66053;HTU21D;52833;45.112;39.556;2022-11-20T04:38:45;7.78;85.71
66053;HTU21D;52833;45.112;39.556;2022-11-20T04:41:17;7.78;85.74
66053;HTU21D;52833;45.112;39.556;2022-11-20T04:43:50;7.78;85.75
66053;HTU21D;52833;45.112;39.556;2022-11-20T04:46:17;7.77;85.74
66053;HTU21D;52833;45.112;39.556;2022-11-20T04:48:45;7.77;85.75
66053;HTU21D;52833;45.112;39.556;2022-11-20T04:51:11;7.76;85.77
66053;HTU21D;52833;45.112;39.556;2022-11-20T04:53:38;7.76;85.78
66053;HTU21D;52833;45.112;39.556;2022-11-20T04:56:07;7.77;85.82
66053;HTU21D;52833;45.112;39.556;2022-11-20T04:58:34;7.78;85.88
66053;HTU21D;52833;45.112;39.556;2022-11-20T05:03:29;7.84;86.03
66053;HTU21D;52833;45.112;39.556;2022-11-20T05:06:00;7.87;86.04
66053;HTU21D;52833;45.112;39.556;2022-11-20T05:08:27;7.90;86.05
66053;HTU21D;52833;45.112;39.556;2022-11-20T05:10:54;7.93;86.06
66053;HTU21D;52833;45.112;39.556;2022-11-20T05:13:26;7.97;86.06
66053;HTU21D;52833;45.112;39.556;2022-11-20T05:15:52;7.99;86.06
66053;HTU21D;52833;45.112;39.556;2022-11-20T05:18:19;8.00;86.07
66053;HTU21D;52833;45.112;39.556;2022-11-20T05:20:46;8.02;86.10
66053;HTU21D;52833;45.112;39.556;2022-11-20T05:23:12;8.03;86.13
66053;HTU21D;52833;45.112;39.556;2022-11-20T05:25:38;8.04;86.15
66053;HTU21D;52833;45.112;39.556;2022-11-20T05:28:05;8.06;86.16
66053;HTU21D;52833;45.112;39.556;2022-11-20T05:30:31;8.09;86.21
66053;HTU21D;52833;45.112;39.556;2022-11-20T05:32:57;8.13;86.25
66053;HTU21D;52833;45.112;39.556;2022-11-20T05:35:24;8.15;86.29
66053;HTU21D;52833;45.112;39.556;2022-11-20T05:37:50;8.21;86.32
66053;HTU21D;52833;45.112;39.556;2022-11-20T05:40:17;8.29;86.45
66053;HTU21D;52833;45.112;39.556;2022-11-20T05:42:43;8.37;86.59
66053;HTU21D;52833;45.112;39.556;2022-11-20T05:45:10;8.46;86.67
66053;HTU21D;52833;45.112;39.556;2022-11-20T05:47:36;8.57;86.71
66053;HTU21D;52833;45.112;39.556;2022-11-20T05:50:03;8.66;86.63
66053;HTU21D;52833;45.112;39.556;2022-11-20T05:52:30;8.73;86.59
66053;HTU21D;52833;45.112;39.556;2022-11-20T05:54:56;8.79;86.56
66053;HTU21D;52833;45.112;39.556;2022-11-20T05:57:24;8.88;86.57
66053;HTU21D;52833;45.112;39.556;2022-11-20T05:59:50;8.95;86.61
66053;HTU21D;52833;45.112;39.556;2022-11-20T06:02:17;9.05;86.76
66053;HTU21D;52833;45.112;39.556;2022-11-20T06:04:43;9.17;86.90
66053;HTU21D;52833;45.112;39.556;2022-11-20T06:07:10;9.30;86.97
66053;HTU21D;52833;45.112;39.556;2022-11-20T06:09:36;9.45;87.01
66053;HTU21D;52833;45.112;39.556;2022-11-20T06:12:03;9.60;87.10
66053;HTU21D;52833;45.112;39.556;2022-11-20T06:14:29;9.74;87.04
66053;HTU21D;52833;45.112;39.556;2022-11-20T06:16:56;9.88;87.04
66053;HTU21D;52833;45.112;39.556;2022-11-20T06:19:22;10.03;87.00
66053;HTU21D;52833;45.112;39.556;2022-11-20T06:21:49;10.14;86.92
66053;HTU21D;52833;45.112;39.556;2022-11-20T06:24:16;10.26;86.81
66053;HTU21D;52833;45.112;39.556;2022-11-20T06:26:43;10.38;86.77
66053;HTU21D;52833;45.112;39.556;2022-11-20T06:29:11;10.49;86.84
66053;HTU21D;52833;45.112;39.556;2022-11-20T06:31:38;10.59;86.89
66053;HTU21D;52833;45.112;39.556;2022-11-20T06:34:05;10.73;86.93
66053;HTU21D;52833;45.112;39.556;2022-11-20T06:36:32;10.86;86.90
66053;HTU21D;52833;45.112;39.556;2022-11-20T06:39:00;11.02;86.86
66053;HTU21D;52833;45.112;39.556;2022-11-20T06:41:26;11.18;86.95
66053;HTU21D;52833;45.112;39.556;2022-11-20T06:43:53;11.38;87.07
66053;HTU21D;52833;45.112;39.556;2022-11-20T06:46:20;11.57;87.11
66053;HTU21D;52833;45.112;39.556;2022-11-20T06:48:48;11.78;87.01
66053;HTU21D;52833;45.112;39.556;2022-11-20T06:51:15;12.00;86.90
66053;HTU21D;52833;45.112;39.556;2022-11-20T06:53:42;12.19;86.86
66053;HTU21D;52833;45.112;39.556;2022-11-20T06:56:08;12.41;86.77
66053;HTU21D;52833;45.112;39.556;2022-11-20T06:58:35;12.61;86.66
66053;HTU21D;52833;45.112;39.556;2022-11-20T07:01:11;12.82;86.52
66053;HTU21D;52833;45.112;39.556;2022-11-20T07:03:38;13.07;86.42
66053;HTU21D;52833;45.112;39.556;2022-11-20T07:06:05;13.30;86.31
66053;HTU21D;52833;45.112;39.556;2022-11-20T07:08:32;13.54;86.16
66053;HTU21D;52833;45.112;39.556;2022-11-20T07:11:02;13.83;85.96
66053;HTU21D;52833;45.112;39.556;2022-11-20T07:13:29;14.13;85.75
66053;HTU21D;52833;45.112;39.556;2022-11-20T07:16:00;14.43;85.48
66053;HTU21D;52833;45.112;39.556;2022-11-20T07:18:27;14.71;85.15
66053;HTU21D;52833;45.112;39.556;2022-11-20T07:20:53;15.00;84.89
66053;HTU21D;52833;45.112;39.556;2022-11-20T07:23:20;15.27;84.58
66053;HTU21D;52833;45.112;39.556;2022-11-20T07:25:46;15.53;84.21
66053;HTU21D;52833;45.112;39.556;2022-11-20T07:28:13;15.76;83.81
66053;HTU21D;52833;45.112;39.556;2022-11-20T07:30:42;15.92;83.35
66053;HTU21D;52833;45.112;39.556;2022-11-20T07:33:09;16.10;83.01
66053;HTU21D;52833;45.112;39.556;2022-11-20T07:35:35;16.26;82.63
66053;HTU21D;52833;45.112;39.556;2022-11-20T07:38:02;16.36;82.24
66053;HTU21D;52833;45.112;39.556;2022-11-20T07:40:29;16.45;82.06
66053;HTU21D;52833;45.112;39.556;2022-11-20T07:42:55;16.52;81.72
66053;HTU21D;52833;45.112;39.556;2022-11-20T07:45:24;16.56;81.42
66053;HTU21D;52833;45.112;39.556;2022-11-20T07:47:51;16.57;81.28
66053;HTU21D;52833;45.112;39.556;2022-11-20T07:50:19;16.59;80.98
66053;HTU21D;52833;45.112;39.556;2022-11-20T07:52:46;16.62;80.82
66053;HTU21D;52833;45.112;39.556;2022-11-20T07:55:13;16.65;80.79
66053;HTU21D;52833;45.112;39.556;2022-11-20T07:57:41;16.73;80.58
66053;HTU21D;52833;45.112;39.556;2022-11-20T08:00:09;16.80;80.28
66053;HTU21D;52833;45.112;39.556;2022-11-20T08:02:40;16.96;80.50
66053;HTU21D;52833;45.112;39.556;2022-11-20T08:05:10;17.17;80.49
66053;HTU21D;52833;45.112;39.556;2022-11-20T08:07:42;17.35;79.84
66053;HTU21D;52833;45.112;39.556;2022-11-20T08:10:12;17.49;79.37
66053;HTU21D;52833;45.112;39.556;2022-11-20T08:12:47;17.59;79.19
66053;HTU21D;52833;45.112;39.556;2022-11-20T08:15:33;17.68;78.76
66053;HTU21D;52833;45.112;39.556;2022-11-20T08:18:02;17.73;78.49
66053;HTU21D;52833;45.112;39.556;2022-11-20T08:20:29;17.75;78.22
66053;HTU21D;52833;45.112;39.556;2022-11-20T08:23:01;17.81;78.24
66053;HTU21D;52833;45.112;39.556;2022-11-20T08:25:29;17.94;78.09
66053;HTU21D;52833;45.112;39.556;2022-11-20T08:28:00;18.07;78.01
66053;HTU21D;52833;45.112;39.556;2022-11-20T08:30:27;18.18;77.78
66053;HTU21D;52833;45.112;39.556;2022-11-20T08:32:55;18.27;77.50
66053;HTU21D;52833;45.112;39.556;2022-11-20T08:35:27;18.35;77.27
66053;HTU21D;52833;45.112;39.556;2022-11-20T08:37:54;18.43;77.18
66053;HTU21D;52833;45.112;39.556;2022-11-20T08:40:20;18.51;76.95
66053;HTU21D;52833;45.112;39.556;2022-11-20T08:42:49;18.59;76.34
66053;HTU21D;52833;45.112;39.556;2022-11-20T08:45:17;18.67;76.25
66053;HTU21D;52833;45.112;39.556;2022-11-20T08:47:45;18.81;76.16
66053;HTU21D;52833;45.112;39.556;2022-11-20T08:50:15;18.99;76.04
66053;HTU21D;52833;45.112;39.556;2022-11-20T08:52:41;19.16;75.44
66053;HTU21D;52833;45.112;39.556;2022-11-20T08:55:09;19.27;74.87
66053;HTU21D;52833;45.112;39.556;2022-11-20T08:57:37;19.38;74.85
66053;HTU21D;52833;45.112;39.556;2022-11-20T09:00:07;19.55;74.82
66053;HTU21D;52833;45.112;39.556;2022-11-20T09:02:34;19.74;74.83
66053;HTU21D;52833;45.112;39.556;2022-11-20T09:05:01;19.96;74.31
66053;HTU21D;52833;45.112;39.556;2022-11-20T09:07:29;20.16;73.70
66053;HTU21D;52833;45.112;39.556;2022-11-20T09:09:56;20.37;73.32
66053;HTU21D;52833;45.112;39.556;2022-11-20T09:12:25;20.56;72.02
66053;HTU21D;52833;45.112;39.556;2022-11-20T09:14:52;20.59;71.11
66053;HTU21D;52833;45.112;39.556;2022-11-20T09:17:21;20.61;70.90
66053;HTU21D;52833;45.112;39.556;2022-11-20T09:19:48;20.60;70.22
66053;HTU21D;52833;45.112;39.556;2022-11-20T09:22:15;20.54;69.85
66053;HTU21D;52833;45.112;39.556;2022-11-20T09:24:42;20.48;69.81
66053;HTU21D;52833;45.112;39.556;2022-11-20T09:27:09;20.42;69.62
66053;HTU21D;52833;45.112;39.556;2022-11-20T09:29:35;20.35;69.66
66053;HTU21D;52833;45.112;39.556;2022-11-20T09:32:02;20.30;69.61
66053;HTU21D;52833;45.112;39.556;2022-11-20T09:34:32;20.25;69.64
66053;HTU21D;52833;45.112;39.556;2022-11-20T09:36:59;20.22;69.65
66053;HTU21D;52833;45.112;39.556;2022-11-20T09:39:25;20.17;69.64
66053;HTU21D;52833;45.112;39.556;2022-11-20T09:41:56;20.11;69.44
66053;HTU21D;52833;45.112;39.556;2022-11-20T09:50:32;19.97;69.18
66053;HTU21D;52833;45.112;39.556;2022-11-20T09:55:49;19.88;69.41
66053;HTU21D;52833;45.112;39.556;2022-11-20T09:58:31;19.84;69.49
66053;HTU21D;52833;45.112;39.556;2022-11-20T10:01:12;19.84;69.56
66053;HTU21D;52833;45.112;39.556;2022-11-20T10:06:31;19.86;69.61
66053;HTU21D;52833;45.112;39.556;2022-11-20T10:09:28;19.91;69.52
66053;HTU21D;52833;45.112;39.556;2022-11-20T10:12:09;19.96;69.52
66053;HTU21D;52833;45.112;39.556;2022-11-20T10:29:18;20.40;68.75
66053;HTU21D;52833;45.112;39.556;2022-11-20T10:31:53;20.41;68.84
66053;HTU21D;52833;45.112;39.556;2022-11-20T10:34:32;20.42;69.01
66053;HTU21D;52833;45.112;39.556;2022-11-20T10:37:23;20.44;68.84
66053;HTU21D;52833;45.112;39.556;2022-11-20T10:42:43;20.53;69.22
66053;HTU21D;52833;45.112;39.556;2022-11-20T10:45:27;20.60;69.24
66053;HTU21D;52833;45.112;39.556;2022-11-20T10:48:12;20.71;69.29
66053;HTU21D;52833;45.112;39.556;2022-11-20T10:51:30;20.79;69.16
66053;HTU21D;52833;45.112;39.556;2022-11-20T10:56:42;20.86;68.60
66053;HTU21D;52833;45.112;39.556;2022-11-20T10:59:34;20.89;68.36
66053;HTU21D;52833;45.112;39.556;2022-11-20T11:02:12;20.89;68.36
66053;HTU21D;52833;45.112;39.556;2022-11-20T11:04:44;20.89;68.42
66053;HTU21D;52833;45.112;39.556;2022-11-20T11:07:24;20.88;68.31
66053;HTU21D;52833;45.112;39.556;2022-11-20T11:09:56;20.85;68.06
66053;HTU21D;52833;45.112;39.556;2022-11-20T11:12:25;20.78;68.02
66053;HTU21D;52833;45.112;39.556;2022-11-20T11:14:57;20.71;67.94
66053;HTU21D;52833;45.112;39.556;2022-11-20T11:17:26;20.64;68.17
66053;HTU21D;52833;45.112;39.556;2022-11-20T11:23:02;20.59;68.51
66053;HTU21D;52833;45.112;39.556;2022-11-20T11:25:32;20.55;68.65
66053;HTU21D;52833;45.112;39.556;2022-11-20T11:30:29;20.47;68.76
66053;HTU21D;52833;45.112;39.556;2022-11-20T11:33:09;20.46;68.83
66053;HTU21D;52833;45.112;39.556;2022-11-20T11:35:46;20.44;68.91
66053;HTU21D;52833;45.112;39.556;2022-11-20T11:38:21;20.43;68.88
66053;HTU21D;52833;45.112;39.556;2022-11-20T11:40:49;20.43;68.96
66053;HTU21D;52833;45.112;39.556;2022-11-20T11:43:28;20.43;68.94
66053;HTU21D;52833;45.112;39.556;2022-11-20T11:46:34;20.41;68.87
66053;HTU21D;52833;45.112;39.556;2022-11-20T11:49:16;20.37;68.82
66053;HTU21D;52833;45.112;39.556;2022-11-20T11:57:08;20.22;69.04
66053;HTU21D;52833;45.112;39.556;2022-11-20T11:59:50;20.15;69.12
66053;HTU21D;52833;45.112;39.556;2022-11-20T12:05:25;19.99;69.18
66053;HTU21D;52833;45.112;39.556;2022-11-20T12:08:49;19.87;69.13
66053;HTU21D;52833;45.112;39.556;2022-11-20T12:11:05;19.76;69.26
66053;HTU21D;52833;45.112;39.556;2022-11-20T12:16:20;19.57;69.55
66053;HTU21D;52833;45.112;39.556;2022-11-20T12:18:51;19.48;69.65
66053;HTU21D;52833;45.112;39.556;2022-11-20T12:24:30;19.29;69.94
66053;HTU21D;52833;45.112;39.556;2022-11-20T12:30:00;19.13;70.26
66053;HTU21D;52833;45.112;39.556;2022-11-20T12:32:49;19.05;70.45
66053;HTU21D;52833;45.112;39.556;2022-11-20T12:43:23;18.79;71.06
66053;HTU21D;52833;45.112;39.556;2022-11-20T12:46:22;18.71;71.21
66053;HTU21D;52833;45.112;39.556;2022-11-20T13:05:24;18.28;72.20
66053;HTU21D;52833;45.112;39.556;2022-11-20T13:07:53;18.22;72.38
66053;HTU21D;52833;45.112;39.556;2022-11-20T13:13:29;18.09;72.62
66053;HTU21D;52833;45.112;39.556;2022-11-20T13:16:02;18.03;72.69
66053;HTU21D;52833;45.112;39.556;2022-11-20T13:18:39;17.95;72.78
66053;HTU21D;52833;45.112;39.556;2022-11-20T13:21:21;17.89;72.92
66053;HTU21D;52833;45.112;39.556;2022-11-20T13:23:49;17.83;73.05
66053;HTU21D;52833;45.112;39.556;2022-11-20T13:26:16;17.79;73.22
66053;HTU21D;52833;45.112;39.556;2022-11-20T13:28:45;17.73;73.38
66053;HTU21D;52833;45.112;39.556;2022-11-20T13:31:34;17.65;73.52
66053;HTU21D;52833;45.112;39.556;2022-11-20T13:34:05;17.59;73.63
66053;HTU21D;52833;45.112;39.556;2022-11-20T13:36:33;17.52;73.80
66053;HTU21D;52833;45.112;39.556;2022-11-20T13:39:02;17.45;73.91
66053;HTU21D;52833;45.112;39.556;2022-11-20T13:41:34;17.40;74.08
66053;HTU21D;52833;45.112;39.556;2022-11-20T13:44:39;17.32;74.31
66053;HTU21D;52833;45.112;39.556;2022-11-20T13:47:24;17.25;74.48
66053;HTU21D;52833;45.112;39.556;2022-11-20T13:49:52;17.19;74.61
66053;HTU21D;52833;45.112;39.556;2022-11-20T13:55:12;17.05;74.89
66053;HTU21D;52833;45.112;39.556;2022-11-20T13:58:03;16.98;74.99
66053;HTU21D;52833;45.112;39.556;2022-11-20T14:00:32;16.92;75.09
66053;HTU21D;52833;45.112;39.556;2022-11-20T14:03:06;16.85;75.21
66053;HTU21D;52833;45.112;39.556;2022-11-20T14:05:40;16.76;75.28
66053;HTU21D;52833;45.112;39.556;2022-11-20T14:08:24;16.71;75.32
66053;HTU21D;52833;45.112;39.556;2022-11-20T14:10:51;16.62;75.35
66053;HTU21D;52833;45.112;39.556;2022-11-20T14:13:28;16.52;75.35
66053;HTU21D;52833;45.112;39.556;2022-11-20T14:15:59;16.44;75.41
66053;HTU21D;52833;45.112;39.556;2022-11-20T14:18:26;16.34;75.48
66053;HTU21D;52833;45.112;39.556;2022-11-20T14:20:53;16.25;75.56
66053;HTU21D;52833;45.112;39.556;2022-11-20T14:23:27;16.16;75.63
66053;HTU21D;52833;45.112;39.556;2022-11-20T14:25:55;16.07;75.70
66053;HTU21D;52833;45.112;39.556;2022-11-20T14:28:30;15.96;75.86
66053;HTU21D;52833;45.112;39.556;2022-11-20T14:30:57;15.86;76.07
66053;HTU21D;52833;45.112;39.556;2022-11-20T14:33:26;15.76;76.27
66053;HTU21D;52833;45.112;39.556;2022-11-20T14:35:55;15.70;76.41
66053;HTU21D;52833;45.112;39.556;2022-11-20T14:38:26;15.65;76.47
66053;HTU21D;52833;45.112;39.556;2022-11-20T14:41:05;15.54;76.56
66053;HTU21D;52833;45.112;39.556;2022-11-20T14:43:32;15.48;76.69
66053;HTU21D;52833;45.112;39.556;2022-11-20T14:46:08;15.38;76.79
66053;HTU21D;52833;45.112;39.556;2022-11-20T14:48:46;15.32;76.92
66053;HTU21D;52833;45.112;39.556;2022-11-20T14:51:34;15.24;77.05
66053;HTU21D;52833;45.112;39.556;2022-11-20T14:54:11;15.17;77.13
66053;HTU21D;52833;45.112;39.556;2022-11-20T14:56:39;15.11;77.20
66053;HTU21D;52833;45.112;39.556;2022-11-20T14:59:05;15.06;77.32
66053;HTU21D;52833;45.112;39.556;2022-11-20T15:01:34;14.99;77.43
66053;HTU21D;52833;45.112;39.556;2022-11-20T15:04:11;14.94;77.50
66053;HTU21D;52833;45.112;39.556;2022-11-20T15:06:48;14.86;77.53
66053;HTU21D;52833;45.112;39.556;2022-11-20T15:09:15;14.78;77.53
66053;HTU21D;52833;45.112;39.556;2022-11-20T15:11:55;14.71;77.63
66053;HTU21D;52833;45.112;39.556;2022-11-20T15:14:24;14.65;77.72
66053;HTU21D;52833;45.112;39.556;2022-11-20T15:16:52;14.58;77.85
66053;HTU21D;52833;45.112;39.556;2022-11-20T15:19:20;14.53;78.04
66053;HTU21D;52833;45.112;39.556;2022-11-20T15:21:47;14.49;78.13
66053;HTU21D;52833;45.112;39.556;2022-11-20T15:24:14;14.44;78.30
66053;HTU21D;52833;45.112;39.556;2022-11-20T15:26:41;14.41;78.46
66053;HTU21D;52833;45.112;39.556;2022-11-20T15:29:11;14.38;78.56
66053;HTU21D;52833;45.112;39.556;2022-11-20T15:31:38;14.36;78.65
66053;HTU21D;52833;45.112;39.556;2022-11-20T15:34:14;14.33;78.76
66053;HTU21D;52833;45.112;39.556;2022-11-20T15:36:43;14.32;78.85
66053;HTU21D;52833;45.112;39.556;2022-11-20T15:39:10;14.28;78.97
66053;HTU21D;52833;45.112;39.556;2022-11-20T15:41:38;14.27;79.11
66053;HTU21D;52833;45.112;39.556;2022-11-20T15:44:05;14.25;79.23
66053;HTU21D;52833;45.112;39.556;2022-11-20T15:46:35;14.24;79.35
66053;HTU21D;52833;45.112;39.556;2022-11-20T15:49:05;14.23;79.55
66053;HTU21D;52833;45.112;39.556;2022-11-20T15:51:38;14.24;79.75
66053;HTU21D;52833;45.112;39.556;2022-11-20T15:54:13;14.22;79.88
66053;HTU21D;52833;45.112;39.556;2022-11-20T15:56:40;14.23;79.98
66053;HTU21D;52833;45.112;39.556;2022-11-20T15:59:07;14.22;80.11
66053;HTU21D;52833;45.112;39.556;2022-11-20T16:01:34;14.23;80.23
66053;HTU21D;52833;45.112;39.556;2022-11-20T16:04:02;14.23;80.34
66053;HTU21D;52833;45.112;39.556;2022-11-20T16:06:29;14.23;80.44
66053;HTU21D;52833;45.112;39.556;2022-11-20T16:08:55;14.23;80.51
66053;HTU21D;52833;45.112;39.556;2022-11-20T16:11:22;14.23;80.57
66053;HTU21D;52833;45.112;39.556;2022-11-20T16:13:49;14.22;80.65
66053;HTU21D;52833;45.112;39.556;2022-11-20T16:16:36;14.20;80.71
66053;HTU21D;52833;45.112;39.556;2022-11-20T16:19:03;14.20;80.75
66053;HTU21D;52833;45.112;39.556;2022-11-20T16:21:30;14.20;80.80
66053;HTU21D;52833;45.112;39.556;2022-11-20T16:24:02;14.19;80.91
66053;HTU21D;52833;45.112;39.556;2022-11-20T16:26:28;14.19;80.92
66053;HTU21D;52833;45.112;39.556;2022-11-20T16:28:58;14.17;80.95
66053;HTU21D;52833;45.112;39.556;2022-11-20T16:31:25;14.15;81.02
66053;HTU21D;52833;45.112;39.556;2022-11-20T16:33:54;14.14;81.04
66053;HTU21D;52833;45.112;39.556;2022-11-20T16:36:23;14.12;81.05
66053;HTU21D;52833;45.112;39.556;2022-11-20T16:38:56;14.11;81.05
66053;HTU21D;52833;45.112;39.556;2022-11-20T16:41:23;14.09;81.01
66053;HTU21D;52833;45.112;39.556;2022-11-20T16:43:52;14.08;80.96
66053;HTU21D;52833;45.112;39.556;2022-11-20T16:46:20;14.04;80.93
66053;HTU21D;52833;45.112;39.556;2022-11-20T16:48:54;13.99;80.90
66053;HTU21D;52833;45.112;39.556;2022-11-20T16:51:21;13.95;80.89
66053;HTU21D;52833;45.112;39.556;2022-11-20T16:53:49;13.93;80.94
66053;HTU21D;52833;45.112;39.556;2022-11-20T16:56:18;13.91;80.96
66053;HTU21D;52833;45.112;39.556;2022-11-20T16:58:48;13.89;80.96
66053;HTU21D;52833;45.112;39.556;2022-11-20T17:01:19;13.84;80.98